sensor_id;sensor_type;location;lat;lon;timestamp;P1;durP1;ratioP1;P2;durP2;ratioP2
20159;SDS011;50187;50.492;12.134;2023-07-20T00:02:17;2.80;;;2.30;;
20159;SDS011;50187;50.492;12.134;2023-07-20T00:04:44;2.27;;;2.17;;
20159;SDS011;50187;50.492;12.134;2023-07-20T00:07:10;2.20;;;2.10;;
20159;SDS011;50187;50.492;12.134;2023-07-20T00:09:37;2.37;;;2.23;;
20159;SDS011;50187;50.492;12.134;2023-07-20T00:12:04;2.10;;;2.00;;
20159;SDS011;50187;50.492;12.134;2023-07-20T00:14:31;2.47;;;2.27;;
20159;SDS011;50187;50.492;12.134;2023-07-20T00:16:58;2.57;;;2.47;;
20159;SDS011;50187;50.492;12.134;2023-07-20T00:19:26;2.10;;;2.00;;
20159;SDS011;50187;50.492;12.134;2023-07-20T00:21:53;2.80;;;2.20;;
20159;SDS011;50187;50.492;12.134;2023-07-20T00:24:21;2.03;;;1.93;;
20159;SDS011;50187;50.492;12.134;2023-07-20T00:26:48;2.40;;;2.20;;
20159;SDS011;50187;50.492;12.134;2023-07-20T00:29:15;2.23;;;2.03;;
20159;SDS011;50187;50.492;12.134;2023-07-20T00:31:42;1.90;;;1.80;;
20159;SDS011;50187;50.492;12.134;2023-07-20T00:34:10;2.37;;;1.93;;
20159;SDS011;50187;50.492;12.134;2023-07-20T00:36:37;2.13;;;2.03;;
20159;SDS011;50187;50.492;12.134;2023-07-20T00:39:03;2.00;;;1.87;;
20159;SDS011;50187;50.492;12.134;2023-07-20T00:41:30;2.40;;;2.30;;
20159;SDS011;50187;50.492;12.134;2023-07-20T00:43:58;2.30;;;2.10;;
20159;SDS011;50187;50.492;12.134;2023-07-20T00:46:24;2.27;;;2.07;;
20159;SDS011;50187;50.492;12.134;2023-07-20T00:48:53;2.10;;;2.00;;
20159;SDS011;50187;50.492;12.134;2023-07-20T00:51:20;2.20;;;2.00;;
20159;SDS011;50187;50.492;12.134;2023-07-20T00:53:49;2.20;;;2.10;;
20159;SDS011;50187;50.492;12.134;2023-07-20T00:56:16;1.90;;;1.80;;
20159;SDS011;50187;50.492;12.134;2023-07-20T00:58:43;2.60;;;2.20;;
20159;SDS011;50187;50.492;12.134;2023-07-20T01:01:11;2.13;;;2.00;;
20159;SDS011;50187;50.492;12.134;2023-07-20T01:03:37;1.97;;;1.87;;
20159;SDS011;50187;50.492;12.134;2023-07-20T01:06:09;2.90;;;2.13;;
20159;SDS011;50187;50.492;12.134;2023-07-20T01:14:14;2.37;;;1.93;;
20159;SDS011;50187;50.492;12.134;2023-07-20T01:16:42;2.23;;;2.07;;
20159;SDS011;50187;50.492;12.134;2023-07-20T01:19:08;2.00;;;1.90;;
20159;SDS011;50187;50.492;12.134;2023-07-20T01:21:40;2.10;;;1.90;;
20159;SDS011;50187;50.492;12.134;2023-07-20T01:32:48;1.83;;;1.73;;
20159;SDS011;50187;50.492;12.134;2023-07-20T01:35:16;2.10;;;2.00;;
20159;SDS011;50187;50.492;12.134;2023-07-20T01:37:45;1.90;;;1.80;;
20159;SDS011;50187;50.492;12.134;2023-07-20T01:40:14;2.07;;;1.80;;
20159;SDS011;50187;50.492;12.134;2023-07-20T01:42:45;2.00;;;1.80;;
20159;SDS011;50187;50.492;12.134;2023-07-20T01:45:13;2.70;;;1.70;;
20159;SDS011;50187;50.492;12.134;2023-07-20T01:47:40;1.93;;;1.83;;
20159;SDS011;50187;50.492;12.134;2023-07-20T01:50:07;1.93;;;1.80;;
20159;SDS011;50187;50.492;12.134;2023-07-20T01:52:34;2.07;;;1.87;;
20159;SDS011;50187;50.492;12.134;2023-07-20T01:55:00;1.90;;;1.80;;
20159;SDS011;50187;50.492;12.134;2023-07-20T01:57:29;1.87;;;1.77;;
20159;SDS011;50187;50.492;12.134;2023-07-20T01:59:56;1.97;;;1.87;;
20159;SDS011;50187;50.492;12.134;2023-07-20T02:02:25;1.90;;;1.80;;
20159;SDS011;50187;50.492;12.134;2023-07-20T02:04:54;2.10;;;2.00;;
20159;SDS011;50187;50.492;12.134;2023-07-20T02:07:21;2.10;;;2.00;;
20159;SDS011;50187;50.492;12.134;2023-07-20T02:09:47;2.07;;;1.97;;
20159;SDS011;50187;50.492;12.134;2023-07-20T02:12:14;2.10;;;2.00;;
20159;SDS011;50187;50.492;12.134;2023-07-20T02:14:41;2.57;;;1.87;;
20159;SDS011;50187;50.492;12.134;2023-07-20T02:17:07;1.90;;;1.80;;
20159;SDS011;50187;50.492;12.134;2023-07-20T02:19:40;2.03;;;1.90;;
20159;SDS011;50187;50.492;12.134;2023-07-20T02:22:07;1.80;;;1.70;;
20159;SDS011;50187;50.492;12.134;2023-07-20T02:24:33;1.97;;;1.87;;
20159;SDS011;50187;50.492;12.134;2023-07-20T02:27:00;1.90;;;1.70;;
20159;SDS011;50187;50.492;12.134;2023-07-20T02:29:27;1.87;;;1.77;;
20159;SDS011;50187;50.492;12.134;2023-07-20T02:31:54;1.90;;;1.80;;
20159;SDS011;50187;50.492;12.134;2023-07-20T02:34:20;2.27;;;2.13;;
20159;SDS011;50187;50.492;12.134;2023-07-20T02:36:47;1.80;;;1.70;;
20159;SDS011;50187;50.492;12.134;2023-07-20T02:39:14;2.40;;;1.73;;
20159;SDS011;50187;50.492;12.134;2023-07-20T02:41:41;1.47;;;1.40;;
20159;SDS011;50187;50.492;12.134;2023-07-20T02:44:07;1.90;;;1.80;;
20159;SDS011;50187;50.492;12.134;2023-07-20T02:46:34;2.37;;;2.17;;
20159;SDS011;50187;50.492;12.134;2023-07-20T02:49:01;2.33;;;1.70;;
20159;SDS011;50187;50.492;12.134;2023-07-20T02:51:28;1.73;;;1.63;;
20159;SDS011;50187;50.492;12.134;2023-07-20T02:53:54;1.63;;;1.53;;
20159;SDS011;50187;50.492;12.134;2023-07-20T02:56:21;2.93;;;1.90;;
20159;SDS011;50187;50.492;12.134;2023-07-20T02:58:49;2.93;;;1.87;;
20159;SDS011;50187;50.492;12.134;2023-07-20T03:01:16;1.97;;;1.87;;
20159;SDS011;50187;50.492;12.134;2023-07-20T03:03:43;1.80;;;1.70;;
20159;SDS011;50187;50.492;12.134;2023-07-20T03:06:13;3.13;;;1.90;;
20159;SDS011;50187;50.492;12.134;2023-07-20T03:08:44;2.07;;;1.90;;
20159;SDS011;50187;50.492;12.134;2023-07-20T03:11:16;1.90;;;1.80;;
20159;SDS011;50187;50.492;12.134;2023-07-20T03:13:44;1.73;;;1.63;;
20159;SDS011;50187;50.492;12.134;2023-07-20T03:16:12;1.30;;;1.30;;
20159;SDS011;50187;50.492;12.134;2023-07-20T03:18:41;1.80;;;1.70;;
20159;SDS011;50187;50.492;12.134;2023-07-20T03:21:08;1.90;;;1.80;;
20159;SDS011;50187;50.492;12.134;2023-07-20T03:23:39;1.83;;;1.73;;
20159;SDS011;50187;50.492;12.134;2023-07-20T03:26:07;2.50;;;1.87;;
20159;SDS011;50187;50.492;12.134;2023-07-20T03:28:37;1.90;;;1.80;;
20159;SDS011;50187;50.492;12.134;2023-07-20T03:31:05;1.73;;;1.63;;
20159;SDS011;50187;50.492;12.134;2023-07-20T03:33:35;2.17;;;1.47;;
20159;SDS011;50187;50.492;12.134;2023-07-20T03:36:01;1.47;;;1.47;;
20159;SDS011;50187;50.492;12.134;2023-07-20T03:38:30;1.67;;;1.57;;
20159;SDS011;50187;50.492;12.134;2023-07-20T03:40:58;2.90;;;1.80;;
20159;SDS011;50187;50.492;12.134;2023-07-20T03:43:26;1.77;;;1.67;;
20159;SDS011;50187;50.492;12.134;2023-07-20T03:45:53;1.97;;;1.63;;
20159;SDS011;50187;50.492;12.134;2023-07-20T03:48:21;1.70;;;1.60;;
20159;SDS011;50187;50.492;12.134;2023-07-20T03:50:51;3.47;;;1.80;;
20159;SDS011;50187;50.492;12.134;2023-07-20T03:53:19;2.10;;;1.60;;
20159;SDS011;50187;50.492;12.134;2023-07-20T03:55:46;1.80;;;1.50;;
20159;SDS011;50187;50.492;12.134;2023-07-20T03:58:14;2.13;;;1.93;;
20159;SDS011;50187;50.492;12.134;2023-07-20T04:00:45;1.50;;;1.40;;
20159;SDS011;50187;50.492;12.134;2023-07-20T04:03:13;1.30;;;1.30;;
20159;SDS011;50187;50.492;12.134;2023-07-20T04:05:41;1.73;;;1.63;;
20159;SDS011;50187;50.492;12.134;2023-07-20T04:08:08;1.73;;;1.57;;
20159;SDS011;50187;50.492;12.134;2023-07-20T04:10:37;1.40;;;1.30;;
20159;SDS011;50187;50.492;12.134;2023-07-20T04:13:05;1.43;;;1.33;;
20159;SDS011;50187;50.492;12.134;2023-07-20T04:15:31;1.77;;;1.67;;
20159;SDS011;50187;50.492;12.134;2023-07-20T04:17:58;1.63;;;1.57;;
20159;SDS011;50187;50.492;12.134;2023-07-20T04:20:25;1.90;;;1.80;;
20159;SDS011;50187;50.492;12.134;2023-07-20T04:22:52;1.50;;;1.40;;
20159;SDS011;50187;50.492;12.134;2023-07-20T04:25:19;1.70;;;1.60;;
20159;SDS011;50187;50.492;12.134;2023-07-20T04:27:45;1.40;;;1.40;;
20159;SDS011;50187;50.492;12.134;2023-07-20T04:30:12;1.70;;;1.60;;
20159;SDS011;50187;50.492;12.134;2023-07-20T04:32:40;1.73;;;1.63;;
20159;SDS011;50187;50.492;12.134;2023-07-20T04:35:17;1.60;;;1.50;;
20159;SDS011;50187;50.492;12.134;2023-07-20T04:38:06;1.50;;;1.40;;
20159;SDS011;50187;50.492;12.134;2023-07-20T04:40:33;1.93;;;1.50;;
20159;SDS011;50187;50.492;12.134;2023-07-20T04:43:00;1.73;;;1.63;;
20159;SDS011;50187;50.492;12.134;2023-07-20T04:45:26;1.63;;;1.53;;
20159;SDS011;50187;50.492;12.134;2023-07-20T04:47:53;1.60;;;1.50;;
20159;SDS011;50187;50.492;12.134;2023-07-20T04:50:21;1.90;;;1.80;;
20159;SDS011;50187;50.492;12.134;2023-07-20T04:52:48;1.67;;;1.57;;
20159;SDS011;50187;50.492;12.134;2023-07-20T04:55:18;1.60;;;1.50;;
20159;SDS011;50187;50.492;12.134;2023-07-20T04:57:46;1.50;;;1.50;;
20159;SDS011;50187;50.492;12.134;2023-07-20T05:00:13;1.90;;;1.80;;
20159;SDS011;50187;50.492;12.134;2023-07-20T05:02:41;2.00;;;1.90;;
20159;SDS011;50187;50.492;12.134;2023-07-20T05:05:08;1.40;;;1.30;;
20159;SDS011;50187;50.492;12.134;2023-07-20T05:07:35;1.70;;;1.60;;
20159;SDS011;50187;50.492;12.134;2023-07-20T05:10:02;1.60;;;1.50;;
20159;SDS011;50187;50.492;12.134;2023-07-20T05:12:29;1.60;;;1.50;;
20159;SDS011;50187;50.492;12.134;2023-07-20T05:14:55;8.20;;;3.00;;
20159;SDS011;50187;50.492;12.134;2023-07-20T05:17:22;5.57;;;3.00;;
20159;SDS011;50187;50.492;12.134;2023-07-20T05:19:50;6.53;;;3.80;;
20159;SDS011;50187;50.492;12.134;2023-07-20T05:22:17;5.97;;;2.93;;
20159;SDS011;50187;50.492;12.134;2023-07-20T05:24:43;9.27;;;4.00;;
20159;SDS011;50187;50.492;12.134;2023-07-20T05:27:10;4.87;;;3.40;;
20159;SDS011;50187;50.492;12.134;2023-07-20T05:29:37;12.00;;;5.07;;
20159;SDS011;50187;50.492;12.134;2023-07-20T05:32:03;9.13;;;3.93;;
20159;SDS011;50187;50.492;12.134;2023-07-20T05:34:31;6.60;;;3.43;;
20159;SDS011;50187;50.492;12.134;2023-07-20T05:37:10;7.47;;;3.87;;
20159;SDS011;50187;50.492;12.134;2023-07-20T05:39:40;4.07;;;3.20;;
20159;SDS011;50187;50.492;12.134;2023-07-20T05:42:06;4.53;;;3.00;;
20159;SDS011;50187;50.492;12.134;2023-07-20T05:44:33;4.97;;;2.70;;
20159;SDS011;50187;50.492;12.134;2023-07-20T05:47:00;2.83;;;2.63;;
20159;SDS011;50187;50.492;12.134;2023-07-20T05:49:26;4.00;;;2.90;;
20159;SDS011;50187;50.492;12.134;2023-07-20T05:51:54;4.67;;;2.57;;
20159;SDS011;50187;50.492;12.134;2023-07-20T05:54:23;3.97;;;2.70;;
20159;SDS011;50187;50.492;12.134;2023-07-20T05:56:50;4.87;;;3.17;;
20159;SDS011;50187;50.492;12.134;2023-07-20T05:59:17;6.40;;;3.00;;
20159;SDS011;50187;50.492;12.134;2023-07-20T06:01:44;8.67;;;3.07;;
20159;SDS011;50187;50.492;12.134;2023-07-20T06:04:10;6.37;;;2.97;;
20159;SDS011;50187;50.492;12.134;2023-07-20T06:06:37;4.47;;;3.10;;
20159;SDS011;50187;50.492;12.134;2023-07-20T06:09:03;5.60;;;3.33;;
20159;SDS011;50187;50.492;12.134;2023-07-20T06:11:31;3.90;;;3.20;;
20159;SDS011;50187;50.492;12.134;2023-07-20T06:13:58;3.73;;;3.10;;
20159;SDS011;50187;50.492;12.134;2023-07-20T06:16:24;4.93;;;3.50;;
20159;SDS011;50187;50.492;12.134;2023-07-20T06:18:51;3.07;;;2.70;;
20159;SDS011;50187;50.492;12.134;2023-07-20T06:21:18;7.83;;;3.63;;
20159;SDS011;50187;50.492;12.134;2023-07-20T06:23:44;4.43;;;2.80;;
20159;SDS011;50187;50.492;12.134;2023-07-20T06:26:12;4.20;;;3.47;;
20159;SDS011;50187;50.492;12.134;2023-07-20T06:28:39;4.73;;;3.80;;
20159;SDS011;50187;50.492;12.134;2023-07-20T06:31:05;3.70;;;3.40;;
20159;SDS011;50187;50.492;12.134;2023-07-20T06:33:32;3.77;;;3.10;;
20159;SDS011;50187;50.492;12.134;2023-07-20T06:35:58;3.17;;;2.87;;
20159;SDS011;50187;50.492;12.134;2023-07-20T06:38:25;3.73;;;3.30;;
20159;SDS011;50187;50.492;12.134;2023-07-20T06:40:55;3.73;;;3.40;;
20159;SDS011;50187;50.492;12.134;2023-07-20T06:43:21;4.80;;;3.27;;
20159;SDS011;50187;50.492;12.134;2023-07-20T06:45:51;5.50;;;3.73;;
20159;SDS011;50187;50.492;12.134;2023-07-20T06:48:21;6.60;;;4.43;;
20159;SDS011;50187;50.492;12.134;2023-07-20T06:50:48;7.73;;;4.70;;
20159;SDS011;50187;50.492;12.134;2023-07-20T06:53:15;3.63;;;3.33;;
20159;SDS011;50187;50.492;12.134;2023-07-20T06:55:41;4.67;;;2.97;;
20159;SDS011;50187;50.492;12.134;2023-07-20T06:58:09;5.03;;;3.40;;
20159;SDS011;50187;50.492;12.134;2023-07-20T07:00:36;6.70;;;3.80;;
20159;SDS011;50187;50.492;12.134;2023-07-20T07:03:03;5.53;;;3.47;;
20159;SDS011;50187;50.492;12.134;2023-07-20T07:05:29;5.43;;;3.87;;
20159;SDS011;50187;50.492;12.134;2023-07-20T07:07:59;4.90;;;3.33;;
20159;SDS011;50187;50.492;12.134;2023-07-20T07:10:25;4.63;;;3.67;;
20159;SDS011;50187;50.492;12.134;2023-07-20T07:12:52;3.53;;;3.23;;
20159;SDS011;50187;50.492;12.134;2023-07-20T07:15:19;4.97;;;3.53;;
20159;SDS011;50187;50.492;12.134;2023-07-20T07:17:45;4.77;;;3.17;;
20159;SDS011;50187;50.492;12.134;2023-07-20T07:20:12;3.20;;;2.90;;
20159;SDS011;50187;50.492;12.134;2023-07-20T07:22:47;3.00;;;2.70;;
20159;SDS011;50187;50.492;12.134;2023-07-20T07:25:14;3.00;;;2.70;;
20159;SDS011;50187;50.492;12.134;2023-07-20T07:27:48;3.73;;;2.80;;
20159;SDS011;50187;50.492;12.134;2023-07-20T07:30:15;3.30;;;2.77;;
20159;SDS011;50187;50.492;12.134;2023-07-20T07:32:41;3.57;;;3.27;;
20159;SDS011;50187;50.492;12.134;2023-07-20T07:35:08;5.23;;;4.33;;
20159;SDS011;50187;50.492;12.134;2023-07-20T07:37:35;4.30;;;3.43;;
20159;SDS011;50187;50.492;12.134;2023-07-20T07:40:22;5.90;;;2.90;;
20159;SDS011;50187;50.492;12.134;2023-07-20T07:42:49;5.40;;;2.93;;
20159;SDS011;50187;50.492;12.134;2023-07-20T07:45:15;2.60;;;2.40;;
20159;SDS011;50187;50.492;12.134;2023-07-20T07:47:43;4.37;;;2.53;;
20159;SDS011;50187;50.492;12.134;2023-07-20T07:50:09;7.90;;;3.93;;
20159;SDS011;50187;50.492;12.134;2023-07-20T07:52:36;7.60;;;3.77;;
20159;SDS011;50187;50.492;12.134;2023-07-20T07:55:04;11.97;;;4.40;;
20159;SDS011;50187;50.492;12.134;2023-07-20T07:57:33;9.07;;;3.83;;
20159;SDS011;50187;50.492;12.134;2023-07-20T07:59:59;11.37;;;4.13;;
20159;SDS011;50187;50.492;12.134;2023-07-20T08:02:26;7.00;;;3.83;;
20159;SDS011;50187;50.492;12.134;2023-07-20T08:04:53;6.63;;;3.50;;
20159;SDS011;50187;50.492;12.134;2023-07-20T08:07:19;4.43;;;3.37;;
20159;SDS011;50187;50.492;12.134;2023-07-20T08:09:46;21.37;;;8.87;;
20159;SDS011;50187;50.492;12.134;2023-07-20T08:12:12;243.80;;;224.03;;
20159;SDS011;50187;50.492;12.134;2023-07-20T08:14:39;178.93;;;164.00;;
20159;SDS011;50187;50.492;12.134;2023-07-20T08:17:06;149.83;;;137.60;;
20159;SDS011;50187;50.492;12.134;2023-07-20T08:19:33;172.87;;;158.70;;
20159;SDS011;50187;50.492;12.134;2023-07-20T08:22:01;66.17;;;60.73;;
20159;SDS011;50187;50.492;12.134;2023-07-20T08:24:29;44.93;;;41.10;;
20159;SDS011;50187;50.492;12.134;2023-07-20T08:26:55;21.30;;;19.57;;
20159;SDS011;50187;50.492;12.134;2023-07-20T08:29:22;13.33;;;12.13;;
20159;SDS011;50187;50.492;12.134;2023-07-20T08:31:48;7.60;;;7.00;;
20159;SDS011;50187;50.492;12.134;2023-07-20T08:34:15;5.27;;;4.77;;
20159;SDS011;50187;50.492;12.134;2023-07-20T08:36:57;3.97;;;3.57;;
20159;SDS011;50187;50.492;12.134;2023-07-20T08:39:24;2.93;;;2.73;;
20159;SDS011;50187;50.492;12.134;2023-07-20T08:41:51;3.93;;;2.43;;
20159;SDS011;50187;50.492;12.134;2023-07-20T08:44:18;4.17;;;2.77;;
20159;SDS011;50187;50.492;12.134;2023-07-20T08:46:45;5.00;;;2.83;;
20159;SDS011;50187;50.492;12.134;2023-07-20T08:49:14;2.60;;;2.40;;
20159;SDS011;50187;50.492;12.134;2023-07-20T08:51:43;2.80;;;2.10;;
20159;SDS011;50187;50.492;12.134;2023-07-20T08:54:12;3.53;;;2.20;;
20159;SDS011;50187;50.492;12.134;2023-07-20T08:56:40;17.00;;;15.57;;
20159;SDS011;50187;50.492;12.134;2023-07-20T08:59:09;20.47;;;18.73;;
20159;SDS011;50187;50.492;12.134;2023-07-20T09:01:36;10.83;;;9.73;;
20159;SDS011;50187;50.492;12.134;2023-07-20T09:04:05;7.43;;;6.67;;
20159;SDS011;50187;50.492;12.134;2023-07-20T09:06:32;4.93;;;4.57;;
20159;SDS011;50187;50.492;12.134;2023-07-20T09:09:01;5.97;;;3.70;;
20159;SDS011;50187;50.492;12.134;2023-07-20T09:11:28;3.47;;;3.10;;
20159;SDS011;50187;50.492;12.134;2023-07-20T09:14:05;3.03;;;2.80;;
20159;SDS011;50187;50.492;12.134;2023-07-20T09:16:32;2.97;;;2.70;;
20159;SDS011;50187;50.492;12.134;2023-07-20T09:19:12;2.47;;;2.30;;
20159;SDS011;50187;50.492;12.134;2023-07-20T09:21:44;3.23;;;2.40;;
20159;SDS011;50187;50.492;12.134;2023-07-20T09:24:18;2.63;;;2.43;;
20159;SDS011;50187;50.492;12.134;2023-07-20T09:26:46;2.90;;;2.60;;
20159;SDS011;50187;50.492;12.134;2023-07-20T09:29:20;2.53;;;2.33;;
20159;SDS011;50187;50.492;12.134;2023-07-20T09:31:59;2.60;;;2.50;;
20159;SDS011;50187;50.492;12.134;2023-07-20T09:34:28;3.13;;;2.83;;
20159;SDS011;50187;50.492;12.134;2023-07-20T09:37:00;2.47;;;2.27;;
20159;SDS011;50187;50.492;12.134;2023-07-20T09:39:28;2.50;;;2.30;;
20159;SDS011;50187;50.492;12.134;2023-07-20T09:41:59;3.50;;;2.00;;
20159;SDS011;50187;50.492;12.134;2023-07-20T09:44:30;2.93;;;2.07;;
20159;SDS011;50187;50.492;12.134;2023-07-20T09:47:02;2.90;;;1.90;;
20159;SDS011;50187;50.492;12.134;2023-07-20T09:49:31;2.40;;;2.20;;
20159;SDS011;50187;50.492;12.134;2023-07-20T09:52:17;2.93;;;2.00;;
20159;SDS011;50187;50.492;12.134;2023-07-20T09:55:05;2.30;;;2.10;;
20159;SDS011;50187;50.492;12.134;2023-07-20T09:57:35;2.70;;;2.00;;
20159;SDS011;50187;50.492;12.134;2023-07-20T10:00:03;2.37;;;2.17;;
20159;SDS011;50187;50.492;12.134;2023-07-20T10:02:45;2.10;;;2.00;;
20159;SDS011;50187;50.492;12.134;2023-07-20T10:05:13;2.13;;;1.93;;
20159;SDS011;50187;50.492;12.134;2023-07-20T10:07:47;2.10;;;2.00;;
20159;SDS011;50187;50.492;12.134;2023-07-20T10:10:17;2.37;;;1.80;;
20159;SDS011;50187;50.492;12.134;2023-07-20T10:12:47;1.73;;;1.63;;
20159;SDS011;50187;50.492;12.134;2023-07-20T10:15:26;2.13;;;1.93;;
20159;SDS011;50187;50.492;12.134;2023-07-20T10:18:02;2.10;;;2.00;;
20159;SDS011;50187;50.492;12.134;2023-07-20T10:20:36;2.00;;;1.90;;
20159;SDS011;50187;50.492;12.134;2023-07-20T10:23:26;2.10;;;2.00;;
20159;SDS011;50187;50.492;12.134;2023-07-20T10:25:55;2.00;;;1.90;;
20159;SDS011;50187;50.492;12.134;2023-07-20T10:28:23;1.93;;;1.80;;
20159;SDS011;50187;50.492;12.134;2023-07-20T10:30:51;2.00;;;1.90;;
20159;SDS011;50187;50.492;12.134;2023-07-20T10:33:17;2.63;;;1.90;;
20159;SDS011;50187;50.492;12.134;2023-07-20T10:41:38;2.00;;;1.80;;
20159;SDS011;50187;50.492;12.134;2023-07-20T10:44:06;2.23;;;2.03;;
20159;SDS011;50187;50.492;12.134;2023-07-20T10:46:36;3.20;;;2.17;;
20159;SDS011;50187;50.492;12.134;2023-07-20T10:49:13;2.30;;;2.20;;
20159;SDS011;50187;50.492;12.134;2023-07-20T10:51:42;2.00;;;1.90;;
20159;SDS011;50187;50.492;12.134;2023-07-20T10:54:54;2.10;;;2.00;;
20159;SDS011;50187;50.492;12.134;2023-07-20T10:56:56;2.10;;;1.97;;
20159;SDS011;50187;50.492;12.134;2023-07-20T11:01:56;2.30;;;1.90;;
20159;SDS011;50187;50.492;12.134;2023-07-20T11:04:40;2.23;;;1.80;;
20159;SDS011;50187;50.492;12.134;2023-07-20T11:07:08;2.00;;;1.90;;
20159;SDS011;50187;50.492;12.134;2023-07-20T11:09:35;2.30;;;2.10;;
20159;SDS011;50187;50.492;12.134;2023-07-20T11:14:43;5.70;;;2.13;;
20159;SDS011;50187;50.492;12.134;2023-07-20T11:17:20;4.03;;;1.93;;
20159;SDS011;50187;50.492;12.134;2023-07-20T11:19:56;1.93;;;1.80;;
20159;SDS011;50187;50.492;12.134;2023-07-20T11:22:26;2.20;;;2.00;;
20159;SDS011;50187;50.492;12.134;2023-07-20T11:24:56;2.20;;;1.97;;
20159;SDS011;50187;50.492;12.134;2023-07-20T11:27:24;4.07;;;2.07;;
20159;SDS011;50187;50.492;12.134;2023-07-20T11:29:51;2.30;;;1.67;;
20159;SDS011;50187;50.492;12.134;2023-07-20T11:32:21;2.90;;;2.20;;
20159;SDS011;50187;50.492;12.134;2023-07-20T11:34:48;2.07;;;1.87;;
20159;SDS011;50187;50.492;12.134;2023-07-20T11:37:15;2.03;;;1.83;;
20159;SDS011;50187;50.492;12.134;2023-07-20T11:39:43;1.87;;;1.77;;
20159;SDS011;50187;50.492;12.134;2023-07-20T11:42:09;2.20;;;2.00;;
20159;SDS011;50187;50.492;12.134;2023-07-20T11:44:37;2.10;;;2.00;;
20159;SDS011;50187;50.492;12.134;2023-07-20T11:47:08;2.57;;;1.70;;
20159;SDS011;50187;50.492;12.134;2023-07-20T11:49:36;2.17;;;1.97;;
20159;SDS011;50187;50.492;12.134;2023-07-20T11:52:06;2.10;;;1.87;;
20159;SDS011;50187;50.492;12.134;2023-07-20T11:54:34;2.10;;;1.90;;
20159;SDS011;50187;50.492;12.134;2023-07-20T11:57:03;3.20;;;2.10;;
20159;SDS011;50187;50.492;12.134;2023-07-20T11:59:31;2.03;;;1.80;;
20159;SDS011;50187;50.492;12.134;2023-07-20T12:02:00;1.90;;;1.47;;
20159;SDS011;50187;50.492;12.134;2023-07-20T12:04:30;2.73;;;1.80;;
20159;SDS011;50187;50.492;12.134;2023-07-20T12:06:57;2.20;;;1.73;;
20159;SDS011;50187;50.492;12.134;2023-07-20T12:09:25;1.80;;;1.70;;
20159;SDS011;50187;50.492;12.134;2023-07-20T12:12:09;2.30;;;1.80;;
20159;SDS011;50187;50.492;12.134;2023-07-20T12:14:38;2.00;;;1.90;;
20159;SDS011;50187;50.492;12.134;2023-07-20T12:17:04;1.87;;;1.77;;
20159;SDS011;50187;50.492;12.134;2023-07-20T12:19:37;3.80;;;1.77;;
20159;SDS011;50187;50.492;12.134;2023-07-20T12:22:06;1.97;;;1.77;;
20159;SDS011;50187;50.492;12.134;2023-07-20T12:24:32;1.70;;;1.60;;
20159;SDS011;50187;50.492;12.134;2023-07-20T12:26:59;1.77;;;1.60;;
20159;SDS011;50187;50.492;12.134;2023-07-20T12:29:26;1.63;;;1.53;;
20159;SDS011;50187;50.492;12.134;2023-07-20T12:31:53;1.67;;;1.57;;
20159;SDS011;50187;50.492;12.134;2023-07-20T12:34:19;2.33;;;1.80;;
20159;SDS011;50187;50.492;12.134;2023-07-20T12:36:46;1.97;;;1.80;;
20159;SDS011;50187;50.492;12.134;2023-07-20T12:39:12;2.27;;;2.03;;
20159;SDS011;50187;50.492;12.134;2023-07-20T12:41:39;1.90;;;1.80;;
20159;SDS011;50187;50.492;12.134;2023-07-20T12:44:05;1.87;;;1.70;;
20159;SDS011;50187;50.492;12.134;2023-07-20T12:46:32;2.57;;;2.10;;
20159;SDS011;50187;50.492;12.134;2023-07-20T12:49:01;2.87;;;2.10;;
20159;SDS011;50187;50.492;12.134;2023-07-20T12:51:28;1.90;;;1.80;;
20159;SDS011;50187;50.492;12.134;2023-07-20T12:53:55;3.50;;;2.10;;
20159;SDS011;50187;50.492;12.134;2023-07-20T12:56:21;2.70;;;2.33;;
20159;SDS011;50187;50.492;12.134;2023-07-20T12:58:51;2.57;;;2.40;;
20159;SDS011;50187;50.492;12.134;2023-07-20T13:01:18;2.80;;;2.60;;
20159;SDS011;50187;50.492;12.134;2023-07-20T13:03:44;2.27;;;2.10;;
20159;SDS011;50187;50.492;12.134;2023-07-20T13:06:14;2.47;;;2.33;;
20159;SDS011;50187;50.492;12.134;2023-07-20T13:08:44;2.60;;;2.37;;
20159;SDS011;50187;50.492;12.134;2023-07-20T13:11:11;2.60;;;2.40;;
20159;SDS011;50187;50.492;12.134;2023-07-20T13:13:37;2.67;;;2.47;;
20159;SDS011;50187;50.492;12.134;2023-07-20T13:16:04;3.40;;;2.50;;
20159;SDS011;50187;50.492;12.134;2023-07-20T13:18:31;2.93;;;2.47;;
20159;SDS011;50187;50.492;12.134;2023-07-20T13:20:57;2.50;;;2.30;;
20159;SDS011;50187;50.492;12.134;2023-07-20T13:23:28;3.73;;;2.40;;
20159;SDS011;50187;50.492;12.134;2023-07-20T13:25:54;2.47;;;2.27;;
20159;SDS011;50187;50.492;12.134;2023-07-20T13:28:21;2.37;;;2.17;;
20159;SDS011;50187;50.492;12.134;2023-07-20T13:30:47;3.40;;;2.00;;
20159;SDS011;50187;50.492;12.134;2023-07-20T13:33:14;2.20;;;2.10;;
20159;SDS011;50187;50.492;12.134;2023-07-20T13:35:44;4.67;;;2.50;;
20159;SDS011;50187;50.492;12.134;2023-07-20T13:38:13;1.93;;;1.83;;
20159;SDS011;50187;50.492;12.134;2023-07-20T13:40:40;3.07;;;1.90;;
20159;SDS011;50187;50.492;12.134;2023-07-20T13:43:08;2.97;;;1.97;;
20159;SDS011;50187;50.492;12.134;2023-07-20T13:45:35;2.07;;;1.97;;
20159;SDS011;50187;50.492;12.134;2023-07-20T13:48:02;1.93;;;1.83;;
20159;SDS011;50187;50.492;12.134;2023-07-20T13:50:32;2.00;;;1.80;;
20159;SDS011;50187;50.492;12.134;2023-07-20T13:53:01;2.47;;;1.90;;
20159;SDS011;50187;50.492;12.134;2023-07-20T13:55:32;1.77;;;1.67;;
20159;SDS011;50187;50.492;12.134;2023-07-20T13:58:03;1.50;;;1.40;;
20159;SDS011;50187;50.492;12.134;2023-07-20T14:00:29;2.07;;;1.77;;
20159;SDS011;50187;50.492;12.134;2023-07-20T14:03:00;2.43;;;1.57;;
20159;SDS011;50187;50.492;12.134;2023-07-20T14:05:29;1.37;;;1.30;;
20159;SDS011;50187;50.492;12.134;2023-07-20T14:07:59;1.90;;;1.80;;
20159;SDS011;50187;50.492;12.134;2023-07-20T14:10:25;1.70;;;1.60;;
20159;SDS011;50187;50.492;12.134;2023-07-20T14:12:52;1.90;;;1.80;;
20159;SDS011;50187;50.492;12.134;2023-07-20T14:15:18;1.50;;;1.40;;
20159;SDS011;50187;50.492;12.134;2023-07-20T14:17:46;1.80;;;1.70;;
20159;SDS011;50187;50.492;12.134;2023-07-20T14:20:12;2.30;;;2.10;;
20159;SDS011;50187;50.492;12.134;2023-07-20T14:22:42;1.73;;;1.60;;
20159;SDS011;50187;50.492;12.134;2023-07-20T14:25:09;1.70;;;1.60;;
20159;SDS011;50187;50.492;12.134;2023-07-20T14:27:35;2.00;;;1.90;;
20159;SDS011;50187;50.492;12.134;2023-07-20T14:30:03;1.80;;;1.70;;
20159;SDS011;50187;50.492;12.134;2023-07-20T14:32:30;2.07;;;1.97;;
20159;SDS011;50187;50.492;12.134;2023-07-20T14:34:59;1.90;;;1.80;;
20159;SDS011;50187;50.492;12.134;2023-07-20T14:37:25;1.77;;;1.67;;
20159;SDS011;50187;50.492;12.134;2023-07-20T14:39:54;1.80;;;1.70;;
20159;SDS011;50187;50.492;12.134;2023-07-20T14:42:23;1.90;;;1.80;;
20159;SDS011;50187;50.492;12.134;2023-07-20T14:44:50;1.70;;;1.60;;
20159;SDS011;50187;50.492;12.134;2023-07-20T14:47:17;2.20;;;2.10;;
20159;SDS011;50187;50.492;12.134;2023-07-20T14:49:45;1.70;;;1.60;;
20159;SDS011;50187;50.492;12.134;2023-07-20T14:52:11;1.77;;;1.67;;
20159;SDS011;50187;50.492;12.134;2023-07-20T14:54:42;2.17;;;2.07;;
20159;SDS011;50187;50.492;12.134;2023-07-20T14:57:08;1.80;;;1.70;;
20159;SDS011;50187;50.492;12.134;2023-07-20T14:59:40;1.80;;;1.70;;
20159;SDS011;50187;50.492;12.134;2023-07-20T15:02:10;1.83;;;1.73;;
20159;SDS011;50187;50.492;12.134;2023-07-20T15:04:37;1.80;;;1.70;;
20159;SDS011;50187;50.492;12.134;2023-07-20T15:07:04;1.80;;;1.70;;